• Join FlightAware (Why Join?)
  • Login
  • US Flag 
12:45AM EDT


 

Airport Tracker/Info


-or-


 

Live Flight TrackerFlight Track Log ✈ RXA469 ✈ 26-Apr-2012 ✈ YGTH / GFF - YSSY / SYD

Flight Track Log - Related Links

Times and Time Zones

All times are in EDT time to prevent confusion due to time zone crossing. See the RXA469 flight status page for this flight to view local times or setup timezone preferences in your user account.

Time Position Orientation Groundspeed Altitude Reporting Facility
EDT Latitude Longitude Course Direction KTS MPH feet Rate Location/Type
02:49AM -34.2492 146.2697 86° East 19,000  Level Aus ATC (Calculated)
02:50AM -34.2490 146.3379 68° East 19,000 -3,660 Level Aus ATC (Calculated)
02:52AM -34.2449 146.3500 93° East 198 228 7,900 -3,780 Descending Aus ATC (RADAR)
02:53AM -34.2464 146.3878 89° East 194 223 8,600 1,140 Climbing Aus ATC (RADAR)
02:54AM -34.2456 146.4485 88° East 195 224 9,600 1,020 Climbing Aus ATC (RADAR)
02:55AM -34.2441 146.5061 89° East 205 236 10,400 1,020 Climbing Aus ATC (RADAR)
02:55AM -34.2433 146.5461 92° East 204 235 11,100 1,020 Climbing Aus ATC (RADAR)
02:57AM -34.2455 146.6319 89° East 206 237 12,300 960 Climbing Aus ATC (RADAR)
02:58AM -34.2444 146.7013 90° East 206 237 13,300 900 Climbing Aus ATC (RADAR)
02:58AM -34.2446 146.7649 94° East 208 239 14,100 840 Climbing Aus ATC (RADAR)
02:59AM -34.2468 146.8057 88° East 208 239 14,600 780 Climbing Aus ATC (RADAR)
03:00AM -34.2453 146.8601 92° East 212 244 15,200 660 Climbing Aus ATC (RADAR)
03:00AM -34.2464 146.9022 89° East 215 247 15,500  Climbing Aus ATC (RADAR)
03:02AM -34.2447 147.0383 90° East 259 298 15,200 -120 Descending Aus ATC (RADAR)
03:04AM -34.2432 147.2228 89° East 275 316 15,200  Level Aus ATC (RADAR)
03:05AM -34.2407 147.3642 90° East 275 316 15,200  Level Aus ATC (RADAR)
03:06AM -34.2405 147.4112 89° East 275 316 15,200  Level Aus ATC (RADAR)
03:07AM -34.2395 147.5210 89° East 273 314 15,200  Level Aus ATC (RADAR)
03:09AM -34.2367 147.6709 89° East 276 318 15,200  Level Aus ATC (RADAR)
03:10AM -34.2344 147.8378 89° East 279 321 15,200  Level Aus ATC (RADAR)
03:12AM -34.2320 147.9969 89° East 280 322 15,200  Level Aus ATC (RADAR)
03:14AM -34.2302 148.1313 89° East 280 322 15,200  Level Aus ATC (RADAR)
03:15AM -34.2278 148.2508 89° East 280 322 15,200  Level Aus ATC (RADAR)
03:16AM -34.2260 148.3389 89° East 282 325 15,200  Level Aus ATC (RADAR)
03:17AM -34.2239 148.4432 89° East 281 323 15,200  Level Aus ATC (RADAR)
03:17AM -34.2227 148.5076 88° East 282 325 15,200  Level Aus ATC (RADAR)
03:19AM -34.2202 148.6203 88° East 283 326 15,200  Level Aus ATC (RADAR)
03:20AM -34.2174 148.7403 88° East 280 322 15,200  Level Aus ATC (RADAR)
03:20AM -34.2163 148.7885 88° East 280 322 15,200  Level Aus ATC (RADAR)
03:21AM -34.2143 148.8763 88° East 280 322 15,200  Level Aus ATC (RADAR)
03:22AM -34.2129 148.9322 88° East 281 323 15,200  Level Aus ATC (RADAR)
03:23AM -34.2104 149.0361 88° East 282 325 15,200  Level Aus ATC (RADAR)
03:24AM -34.2077 149.1314 88° East 279 321 15,200  Level Aus ATC (RADAR)
03:25AM -34.2052 149.2270 88° East 279 321 15,200  Level Aus ATC (RADAR)
03:25AM -34.2039 149.2750 88° East 281 323 15,200  Level Aus ATC (RADAR)
03:27AM -34.2004 149.4027 88° East 280 322 15,200  Level Aus ATC (RADAR)
03:28AM -34.1966 149.5302 88° East 280 322 15,200  Level Aus ATC (RADAR)
03:29AM -34.1941 149.6178 88° East 279 321 15,200  Level Aus ATC (RADAR)
03:30AM -34.1925 149.6735 88° East 278 320 15,200 -120 Level Aus ATC (RADAR)
03:30AM -34.1901 149.7529 88° East 278 320 15,100 -60 Descending Aus ATC (RADAR)
03:31AM -34.1868 149.8557 88° East 275 316 15,100  Level Aus ATC (RADAR)
03:32AM -34.1847 149.9192 88° East 277 319 15,100  Level Aus ATC (RADAR)
03:33AM -34.1812 150.0228 86° East 278 320 15,100  Level Aus ATC (RADAR)
03:34AM -34.1758 150.1266 74° East 283 326 15,100  Level Aus ATC (RADAR)
03:35AM -34.1632 150.1807 75° East 280 322 15,100  Level Aus ATC (RADAR)
03:36AM -34.1435 150.2663 75° East 282 325 15,100 -180 Level Aus ATC (RADAR)
03:37AM -34.1283 150.3369 76° East 285 328 14,800 -840 Descending Aus ATC (RADAR)
03:37AM -34.1159 150.3944 75° East 297 342 14,000 -1,380 Descending Aus ATC (RADAR)
03:38AM -34.0905 150.5129 75° East 302 348 12,400 -1,380 Descending Aus ATC (RADAR)
03:39AM -34.0674 150.6188 75° East 286 329 10,900 -1,380 Descending Aus ATC (RADAR)
03:41AM -34.0413 150.7396 75° East 264 304 9,100 -1,260 Descending Aus ATC (RADAR)
03:42AM -34.0132 150.8653 74° East 267 307 7,500 -1,080 Descending Aus ATC (RADAR)
03:43AM -34.0008 150.9173 74° East 269 310 7,000 -840 Descending Aus ATC (RADAR)
03:44AM -33.9763 151.0215 North 267 307 6,100 -480 Descending Aus ATC (RADAR)
03:46AM -33.8628 151.0391 15° North 242 278 5,600 -540 Descending Aus ATC (RADAR)
03:47AM -33.7888 151.0637 85° East 227 261 4,500 -900 Descending Aus ATC (RADAR)
03:48AM -33.7855 151.1084 142° Southeast 210 242 3,900 -900 Descending Aus ATC (RADAR)
03:49AM -33.8231 151.1432 167° South 159 183 3,000 -1,080 Descending Aus ATC (RADAR)
03:50AM -33.8889 151.1609 167° South 121 139 1,000 -1,020 Descending Aus ATC (RADAR)
03:51AM -33.9118 151.1671 167° South 110 127 500 -720 Descending Aus ATC (RADAR)